Time;durP1;ratioP1;P1;durP2;ratioP2;P2;SDS_P1;SDS_P2;PMS_P1;PMS_P2;Temp;Humidity;BMP_temperature;BMP_pressure;BME280_temperature;BME280_humidity;BME280_pressure;Samples;Min_cycle;Max_cycle;Signal;HPM_P1;HPM_P2
2021/04/30 00:00:37;;;;;;;4.22;3.83;;;;;;;13.70;63.61;99875.19;4904047;28;128306;-61
2021/04/30 00:03:03;;;;;;;4.38;3.58;;;;;;;13.67;63.70;99878.50;4903976;28;110816;-63
2021/04/30 00:05:29;;;;;;;4.55;3.67;;;;;;;13.65;63.64;99880.72;4904903;28;104147;-61
2021/04/30 00:07:56;;;;;;;4.45;3.78;;;;;;;13.64;63.67;99887.25;4905273;28;98135;-63
2021/04/30 00:10:23;;;;;;;3.95;3.65;;;;;;;13.61;63.81;99893.28;4902136;28;127758;-61
2021/04/30 00:12:50;;;;;;;3.65;3.35;;;;;;;13.60;63.77;99883.53;4902367;28;114844;-61
2021/04/30 00:15:16;;;;;;;4.53;3.75;;;;;;;13.57;63.59;99876.03;4905023;28;97666;-61
2021/04/30 00:17:42;;;;;;;3.88;3.47;;;;;;;13.55;63.33;99887.13;4919079;28;98161;-62
2021/04/30 00:20:09;;;;;;;4.40;4.00;;;;;;;13.55;63.23;99889.03;4902973;28;127302;-62
2021/04/30 00:22:35;;;;;;;4.35;3.95;;;;;;;13.49;63.32;99881.03;4904409;28;98394;-61
2021/04/30 00:25:02;;;;;;;4.10;3.70;;;;;;;13.47;63.05;99890.53;4904173;28;97923;-61
2021/04/30 00:27:28;;;;;;;3.97;3.63;;;;;;;13.43;63.11;99890.34;4903746;28;99086;-61
2021/04/30 00:29:54;;;;;;;3.70;3.40;;;;;;;13.41;63.22;99886.34;4903481;28;127673;-63
2021/04/30 00:32:20;;;;;;;4.22;3.83;;;;;;;13.39;63.27;99896.66;4903848;28;126186;-61
2021/04/30 00:34:46;;;;;;;4.40;4.00;;;;;;;13.35;63.17;99899.16;4901508;28;100047;-61
2021/04/30 00:37:12;;;;;;;4.50;4.05;;;;;;;13.36;62.87;99900.78;4903397;28;128003;-63
2021/04/30 00:39:38;;;;;;;4.13;3.72;;;;;;;13.36;62.89;99902.66;4904086;28;106712;-61
2021/04/30 00:42:04;;;;;;;4.30;3.85;;;;;;;13.34;62.79;99913.00;4901907;28;109709;-60
2021/04/30 00:44:30;;;;;;;4.65;4.25;;;;;;;13.29;62.69;99922.03;4901828;28;105987;-60
2021/04/30 00:46:56;;;;;;;4.55;4.15;;;;;;;13.28;62.64;99912.28;4901410;28;127662;-62
2021/04/30 00:49:23;;;;;;;4.78;4.30;;;;;;;13.25;62.37;99921.00;4902402;28;98548;-63
2021/04/30 00:51:49;;;;;;;4.82;4.43;;;;;;;13.26;62.59;99928.03;4903808;28;97899;-62
2021/04/30 00:54:15;;;;;;;5.07;4.28;;;;;;;13.23;62.73;99925.91;4903579;28;116303;-61
2021/04/30 00:56:41;;;;;;;4.75;3.95;;;;;;;13.20;62.45;99930.00;4902619;28;128264;-62
2021/04/30 00:59:07;;;;;;;4.68;4.20;;;;;;;13.17;62.62;99919.75;4902531;28;126273;-62
2021/04/30 01:01:33;;;;;;;4.43;4.03;;;;;;;13.13;62.40;99926.88;4903133;28;98129;-60
2021/04/30 01:03:59;;;;;;;4.78;4.38;;;;;;;13.12;62.34;99927.16;4903520;28;99196;-60
2021/04/30 01:06:25;;;;;;;4.72;4.32;;;;;;;13.11;62.43;99941.78;4902066;28;127848;-60
2021/04/30 01:08:51;;;;;;;4.78;4.32;;;;;;;13.11;62.43;99947.19;4917883;28;98499;-60
2021/04/30 01:11:17;;;;;;;5.13;4.63;;;;;;;13.10;62.06;99956.41;4900792;28;126991;-60
2021/04/30 01:13:44;;;;;;;4.95;4.45;;;;;;;13.06;62.44;99950.00;4903392;28;118232;-60
2021/04/30 01:16:10;;;;;;;5.00;4.50;;;;;;;13.03;62.42;99949.47;4901816;28;129416;-60
2021/04/30 01:18:46;;;;;;;5.57;4.35;;;;;;;12.99;62.25;99953.06;4904462;28;99848;-61
2021/04/30 01:21:12;;;;;;;5.65;5.05;;;;;;;12.97;62.33;99949.88;4904229;28;98672;-63
2021/04/30 01:23:49;;;;;;;4.85;4.35;;;;;;;12.99;62.17;99955.78;4904911;28;97851;-61
2021/04/30 01:26:16;;;;;;;5.32;4.82;;;;;;;13.06;61.77;99955.41;4900683;28;98881;-63
2021/04/30 01:28:42;;;;;;;5.18;4.68;;;;;;;13.09;62.04;99957.53;4903790;28;98221;-63
2021/04/30 01:31:08;;;;;;;5.63;4.85;;;;;;;13.12;61.49;99960.41;4902979;28;98100;-61
2021/04/30 01:33:34;;;;;;;5.40;4.78;;;;;;;13.12;61.66;99956.91;4903098;28;115776;-63
2021/04/30 01:36:00;;;;;;;5.53;5.03;;;;;;;13.12;61.36;99962.31;4902442;28;123664;-61
2021/04/30 01:38:27;;;;;;;5.15;4.65;;;;;;;13.12;61.05;99959.63;4902555;28;128013;-63
2021/04/30 01:40:53;;;;;;;5.45;5.00;;;;;;;13.09;61.12;99963.72;4901304;28;100151;-63
2021/04/30 01:43:20;;;;;;;5.95;5.35;;;;;;;13.12;60.88;99967.72;4903131;28;118305;-63
2021/04/30 01:45:56;;;;;;;5.28;4.78;;;;;;;13.10;60.57;99967.25;4903206;28;99096;-61
2021/04/30 01:48:29;;;;;;;5.57;5.07;;;;;;;13.04;61.24;99980.03;4903480;28;98017;-61
2021/04/30 01:50:57;;;;;;;5.85;5.35;;;;;;;13.01;60.98;99984.16;4902909;28;98103;-61
2021/04/30 01:53:26;;;;;;;5.78;5.28;;;;;;;12.99;60.89;99978.22;4903494;28;97638;-61
2021/04/30 01:55:52;;;;;;;6.38;5.78;;;;;;;12.98;60.69;99986.63;4885217;28;98817;-63
2021/04/30 01:58:19;;;;;;;5.80;5.30;;;;;;;12.95;61.12;99984.50;4902486;28;98934;-61
2021/04/30 02:00:45;;;;;;;6.28;5.68;;;;;;;12.94;60.96;99986.41;4902421;28;97972;-63
2021/04/30 02:03:11;;;;;;;5.40;4.90;;;;;;;12.92;60.76;99979.69;4902638;28;104847;-61
2021/04/30 02:05:38;;;;;;;6.00;5.40;;;;;;;12.88;61.10;99984.06;4901239;28;98057;-61
2021/04/30 02:08:07;;;;;;;6.40;5.80;;;;;;;12.89;60.91;99996.50;4901754;28;99101;-61
2021/04/30 02:10:33;;;;;;;6.10;5.47;;;;;;;12.85;60.77;99998.19;4883855;28;98091;-61
2021/04/30 02:13:00;;;;;;;6.22;5.63;;;;;;;12.80;61.33;99982.84;4902554;28;97904;-63
2021/04/30 02:15:31;;;;;;;6.00;5.40;;;;;;;12.80;60.83;99988.25;4883151;28;106549;-61
2021/04/30 02:17:57;;;;;;;6.53;5.93;;;;;;;12.80;61.24;99988.25;4900772;28;98459;-61
2021/04/30 02:20:24;;;;;;;6.50;5.93;;;;;;;12.76;61.29;99996.13;4900431;28;115624;-61
2021/04/30 02:22:50;;;;;;;6.25;5.65;;;;;;;12.77;61.06;99988.81;4901737;28;97913;-61
2021/04/30 02:25:17;;;;;;;6.68;6.00;;;;;;;12.70;61.27;99986.50;4900577;28;114409;-61
2021/04/30 02:27:45;;;;;;;6.35;5.75;;;;;;;12.71;60.86;99992.72;4900856;28;98400;-61
2021/04/30 02:30:13;;;;;;;6.43;5.82;;;;;;;12.66;60.93;99995.50;4900054;28;98379;-63
2021/04/30 02:32:39;;;;;;;5.95;5.35;;;;;;;12.67;61.33;99989.78;4899028;28;105354;-63
2021/04/30 02:35:16;;;;;;;6.25;5.65;;;;;;;12.67;60.74;99992.50;4915012;28;99433;-63
2021/04/30 02:37:43;;;;;;;6.28;5.68;;;;;;;12.67;60.91;99989.78;4900827;28;98872;-61
2021/04/30 02:40:11;;;;;;;6.20;5.70;;;;;;;12.64;60.68;99989.56;4900374;28;98251;-63
2021/04/30 02:42:37;;;;;;;6.65;6.05;;;;;;;12.65;60.63;99991.16;4900156;28;98068;-63
2021/04/30 02:45:07;;;;;;;6.68;6.07;;;;;;;12.65;60.84;99991.16;4900400;28;98802;-63
2021/04/30 02:47:34;;;;;;;6.85;6.25;;;;;;;12.64;60.62;99990.38;4900836;28;99817;-61
2021/04/30 02:50:01;;;;;;;7.10;6.10;;;;;;;12.63;60.99;99994.19;4900896;28;97933;-62
2021/04/30 02:52:27;;;;;;;6.90;6.30;;;;;;;12.62;60.94;99998.00;4900774;28;98090;-61
2021/04/30 02:54:54;;;;;;;6.22;5.70;;;;;;;12.61;61.23;100003.66;4900346;28;98532;-61
2021/04/30 02:57:20;;;;;;;7.10;6.40;;;;;;;12.59;61.10;100008.56;4915446;28;98882;-61
2021/04/30 02:59:46;;;;;;;6.53;5.88;;;;;;;12.59;60.94;99995.06;4894378;28;128579;-63
2021/04/30 03:02:14;;;;;;;6.60;6.07;;;;;;;12.61;60.61;99999.06;4881327;28;97736;-61
2021/04/30 03:04:40;;;;;;;7.03;6.07;;;;;;;12.59;60.53;100006.69;4889316;28;98694;-61
2021/04/30 03:07:07;;;;;;;6.70;6.10;;;;;;;12.59;60.98;100005.88;4900487;28;98713;-61
2021/04/30 03:09:33;;;;;;;6.93;6.32;;;;;;;12.57;60.51;100011.56;4900668;28;98317;-63
2021/04/30 03:11:59;;;;;;;6.82;6.22;;;;;;;12.58;60.52;100015.09;4899592;28;123472;-63
2021/04/30 03:14:25;;;;;;;7.28;6.05;;;;;;;12.57;61.06;100021.56;4900215;28;99163;-61
2021/04/30 03:16:51;;;;;;;7.28;6.57;;;;;;;12.57;60.31;100016.97;4902451;28;99058;-61
2021/04/30 03:19:17;;;;;;;6.90;6.20;;;;;;;12.57;60.83;100022.38;4900139;28;128247;-61
2021/04/30 03:21:43;;;;;;;6.82;6.22;;;;;;;12.57;60.64;100030.47;4899448;28;124210;-63
2021/04/30 03:24:09;;;;;;;7.40;6.70;;;;;;;12.57;60.46;100026.97;4900208;28;127788;-62
2021/04/30 03:26:36;;;;;;;6.72;6.13;;;;;;;12.56;60.23;100025.38;4899302;28;119941;-61
2021/04/30 03:29:02;;;;;;;6.65;6.05;;;;;;;12.53;60.87;100024.84;4899936;28;118470;-61
2021/04/30 03:31:28;;;;;;;7.10;6.43;;;;;;;12.57;60.21;100040.50;4900558;28;111528;-63
2021/04/30 03:33:54;;;;;;;6.68;6.07;;;;;;;12.56;60.70;100033.47;4900719;28;97866;-61
2021/04/30 03:36:20;;;;;;;6.90;6.30;;;;;;;12.53;60.00;100032.97;4899599;28;107915;-61
2021/04/30 03:38:47;;;;;;;7.28;6.57;;;;;;;12.55;60.28;100043.50;4899842;28;98639;-61
2021/04/30 03:41:14;;;;;;;7.00;6.30;;;;;;;12.55;59.85;100043.50;4899639;28;97977;-63
2021/04/30 03:43:41;;;;;;;7.32;6.63;;;;;;;12.55;60.32;100048.09;4898678;28;98141;-61
2021/04/30 03:46:07;;;;;;;7.28;6.65;;;;;;;12.55;60.26;100048.09;4900609;28;98404;-61
2021/04/30 03:48:33;;;;;;;7.07;6.38;;;;;;;12.52;60.31;100049.47;4898952;28;128446;-61
2021/04/30 03:50:59;;;;;;;7.15;6.45;;;;;;;12.53;60.00;100049.19;4900102;28;97918;-61
2021/04/30 03:53:25;;;;;;;6.85;6.25;;;;;;;12.55;60.06;100046.19;4900234;28;107363;-61
2021/04/30 03:55:51;;;;;;;7.82;7.10;;;;;;;12.56;59.82;100055.91;4901712;28;97886;-63
2021/04/30 03:58:18;;;;;;;7.82;6.72;;;;;;;12.53;59.98;100046.47;4902466;28;127334;-61
2021/04/30 04:00:44;;;;;;;7.22;6.53;;;;;;;12.54;60.11;100047.31;4903945;28;105293;-61
2021/04/30 04:03:10;;;;;;;7.60;6.90;;;;;;;12.52;59.46;100052.19;4902761;28;128286;-61
2021/04/30 04:05:36;;;;;;;7.05;6.45;;;;;;;12.53;59.66;100053.78;4900959;28;98100;-63
2021/04/30 04:08:04;;;;;;;7.43;6.72;;;;;;;12.52;59.50;100058.38;4903738;28;98010;-61
2021/04/30 04:10:30;;;;;;;7.28;6.65;;;;;;;12.53;59.99;100059.19;4903456;28;97904;-63
2021/04/30 04:12:56;;;;;;;7.10;6.30;;;;;;;12.52;59.38;100057.59;4903101;28;117551;-63
2021/04/30 04:15:22;;;;;;;7.32;6.63;;;;;;;12.53;59.38;100064.59;4901892;28;128227;-63
2021/04/30 04:17:49;;;;;;;7.25;6.50;;;;;;;12.52;59.68;100071.91;4903176;28;100377;-63
2021/04/30 04:20:15;;;;;;;7.35;6.65;;;;;;;12.55;59.17;100075.16;4901132;28;124779;-63
2021/04/30 04:22:41;;;;;;;7.70;7.05;;;;;;;12.52;59.28;100071.91;4902060;28;128022;-61
2021/04/30 04:25:08;;;;;;;7.95;7.15;;;;;;;12.54;59.16;100068.94;4903226;28;98390;-63
2021/04/30 04:27:34;;;;;;;7.20;6.50;;;;;;;12.58;59.69;100072.66;4902442;28;100737;-63
2021/04/30 04:30:01;;;;;;;7.40;6.70;;;;;;;12.60;59.22;100073.16;4917394;28;97964;-63
2021/04/30 04:32:27;;;;;;;7.32;6.63;;;;;;;12.65;59.42;100078.50;4902092;28;117842;-61
2021/04/30 04:34:53;;;;;;;8.05;7.25;;;;;;;12.69;59.30;100076.03;4901943;28;127830;-63
2021/04/30 04:37:19;;;;;;;7.53;6.82;;;;;;;12.70;59.21;100081.16;4899934;28;98490;-61
2021/04/30 04:39:45;;;;;;;7.50;6.80;;;;;;;12.70;59.30;100080.34;4899066;28;122755;-63
2021/04/30 04:42:11;;;;;;;7.28;6.47;;;;;;;12.71;59.21;100085.47;4898123;28;128372;-61
2021/04/30 04:44:37;;;;;;;6.82;6.22;;;;;;;12.73;59.02;100083.28;4897461;28;128119;-61
2021/04/30 04:47:03;;;;;;;7.55;6.85;;;;;;;12.77;59.29;100078.91;4897908;28;98426;-63
2021/04/30 04:49:29;;;;;;;7.20;6.50;;;;;;;12.78;59.71;100083.22;4900628;28;98318;-61
2021/04/30 04:51:55;;;;;;;7.60;6.90;;;;;;;12.79;59.46;100092.13;4899239;28;98441;-63
2021/04/30 04:54:22;;;;;;;7.10;6.50;;;;;;;12.82;59.96;100096.16;4899134;28;98568;-63
2021/04/30 04:56:49;;;;;;;7.20;6.47;;;;;;;12.84;59.84;100096.66;4882328;28;98126;-61
2021/04/30 04:59:15;;;;;;;7.30;6.60;;;;;;;12.91;59.48;100103.31;4903703;28;98307;-60
2021/04/30 05:01:41;;;;;;;7.53;6.82;;;;;;;12.95;59.53;100103.53;4901848;28;98459;-63
2021/04/30 05:04:07;;;;;;;7.68;6.88;;;;;;;12.91;59.60;100114.13;4902276;28;109175;-63
2021/04/30 05:06:33;;;;;;;7.93;7.13;;;;;;;12.93;59.98;100116.53;4901005;28;112162;-61
2021/04/30 05:08:59;;;;;;;7.53;6.80;;;;;;;12.94;59.93;100113.56;4902942;28;97665;-63
2021/04/30 05:11:25;;;;;;;7.53;6.82;;;;;;;12.99;60.02;100121.59;4900857;28;127725;-63
2021/04/30 05:13:51;;;;;;;7.10;6.40;;;;;;;13.02;60.54;100118.31;4899713;28;128583;-62
2021/04/30 05:16:17;;;;;;;7.78;7.07;;;;;;;13.09;60.28;100120.69;4915293;28;127995;-60
2021/04/30 05:18:43;;;;;;;7.97;7.03;;;;;;;13.11;59.96;100117.66;4916731;28;97922;-63
2021/04/30 05:21:11;;;;;;;7.55;6.75;;;;;;;13.15;59.92;100116.78;4901992;28;97803;-63
2021/04/30 05:23:38;;;;;;;7.68;6.88;;;;;;;13.24;59.90;100115.06;4902676;28;98446;-61
2021/04/30 05:26:04;;;;;;;7.68;6.97;;;;;;;13.34;59.60;100124.13;4901488;28;97831;-61
2021/04/30 05:28:33;;;;;;;7.63;6.93;;;;;;;13.42;59.50;100120.75;4901970;28;99330;-61
2021/04/30 05:31:00;;;;;;;8.05;7.25;;;;;;;13.55;59.55;100122.72;4901614;28;97910;-63
2021/04/30 05:33:26;;;;;;;7.63;6.93;;;;;;;13.69;58.96;100120.88;4902755;28;98888;-61
2021/04/30 05:35:52;;;;;;;8.18;6.70;;;;;;;13.71;59.23;100123.25;4901024;28;108434;-61
2021/04/30 05:38:18;;;;;;;7.85;7.15;;;;;;;13.72;59.27;100125.69;4884290;28;113621;-63
2021/04/30 05:40:45;;;;;;;8.10;7.30;;;;;;;13.80;59.31;100126.94;4901759;28;99930;-61
2021/04/30 05:43:11;;;;;;;6.70;6.10;;;;;;;13.86;59.08;100133.84;4901127;28;119610;-61
2021/04/30 05:45:44;;;;;;;7.53;6.82;;;;;;;13.86;59.20;100127.63;4901390;28;98772;-63
2021/04/30 05:48:10;;;;;;;7.85;7.15;;;;;;;13.94;59.29;100129.66;4902760;28;98163;-63
2021/04/30 05:50:36;;;;;;;7.57;6.88;;;;;;;14.01;58.75;100127.38;4883393;28;106660;-61
2021/04/30 05:53:02;;;;;;;7.88;7.15;;;;;;;14.12;59.01;100138.84;4883793;28;112156;-63
2021/04/30 05:55:28;;;;;;;8.85;7.45;;;;;;;14.30;58.62;100140.66;4914869;28;121958;-63
2021/04/30 05:57:54;;;;;;;7.53;6.70;;;;;;;14.43;58.40;100133.66;4901355;28;111972;-63
2021/04/30 06:00:21;;;;;;;7.70;6.90;;;;;;;14.57;57.95;100129.03;4901311;28;110950;-60
2021/04/30 06:02:47;;;;;;;7.78;7.07;;;;;;;14.86;57.24;100131.47;4900691;28;107251;-63
2021/04/30 06:05:13;;;;;;;7.18;6.47;;;;;;;15.03;57.21;100140.88;4901342;28;98009;-61
2021/04/30 06:07:39;;;;;;;7.60;6.90;;;;;;;15.09;57.09;100142.34;4901326;28;122416;-61
2021/04/30 06:10:06;;;;;;;7.45;6.78;;;;;;;15.11;57.04;100148.28;4901895;28;98405;-63
2021/04/30 06:12:32;;;;;;;7.07;6.38;;;;;;;15.23;57.44;100146.66;4899732;28;99167;-61
2021/04/30 06:14:58;;;;;;;7.45;6.75;;;;;;;15.51;56.57;100141.13;4901170;28;98631;-63
2021/04/30 06:17:25;;;;;;;7.65;6.32;;;;;;;15.83;55.84;100142.81;4915067;28;98057;-61
2021/04/30 06:19:51;;;;;;;7.18;6.47;;;;;;;16.05;55.48;100154.78;4899763;28;128162;-61
2021/04/30 06:22:17;;;;;;;7.47;6.50;;;;;;;16.26;54.89;100153.13;4915166;28;122760;-64
2021/04/30 06:24:43;;;;;;;7.63;6.90;;;;;;;16.52;54.24;100149.75;4901258;28;97826;-61
2021/04/30 06:27:09;;;;;;;7.35;6.65;;;;;;;16.78;52.74;100155.28;4900573;28;99792;-61
2021/04/30 06:29:35;;;;;;;7.65;6.85;;;;;;;16.68;53.49;100157.16;4901981;28;100238;-61
2021/04/30 06:32:01;;;;;;;7.85;7.05;;;;;;;16.72;52.07;100156.53;4900357;28;125946;-63
2021/04/30 06:34:27;;;;;;;8.00;7.20;;;;;;;16.87;50.81;100164.28;4900140;28;128989;-64
2021/04/30 06:36:54;;;;;;;7.47;6.60;;;;;;;17.33;50.14;100149.28;4900428;28;123320;-64
2021/04/30 06:39:21;;;;;;;7.07;6.47;;;;;;;18.20;49.55;100158.22;4901712;28;98526;-59
2021/04/30 06:41:47;;;;;;;7.20;6.55;;;;;;;18.95;47.49;100149.56;4900609;28;98477;-59
2021/04/30 06:44:13;;;;;;;7.13;6.43;;;;;;;19.01;47.05;100156.41;4899780;28;126338;-62
2021/04/30 06:46:39;;;;;;;7.03;6.32;;;;;;;19.66;46.33;100151.44;4899994;28;123392;-63
2021/04/30 06:49:05;;;;;;;5.82;5.32;;;;;;;20.43;47.33;100163.47;4883290;28;127864;-59
2021/04/30 06:51:32;;;;;;;6.57;5.97;;;;;;;20.97;44.81;100157.00;4900932;28;98320;-60
2021/04/30 06:54:00;;;;;;;5.78;5.28;;;;;;;21.37;44.11;100159.81;4882758;28;98050;-59
2021/04/30 06:56:29;;;;;;;6.10;5.20;;;;;;;21.45;44.90;100171.78;4901014;28;98096;-59
2021/04/30 06:58:56;;;;;;;5.57;5.07;;;;;;;21.91;44.42;100177.78;4900836;28;98396;-62
2021/04/30 07:01:22;;;;;;;5.55;5.05;;;;;;;22.35;42.79;100177.78;4900787;28;98143;-62
2021/04/30 07:03:48;;;;;;;5.18;4.70;;;;;;;22.26;43.64;100184.25;4900762;28;98729;-62
2021/04/30 07:06:15;;;;;;;5.38;4.88;;;;;;;22.09;44.94;100187.31;4900991;28;97837;-59
2021/04/30 07:08:41;;;;;;;5.45;4.95;;;;;;;21.59;44.80;100190.59;4900707;28;98758;-59
2021/04/30 07:11:07;;;;;;;6.45;5.75;;;;;;;21.08;45.67;100197.31;4900585;28;98379;-60
2021/04/30 07:13:35;;;;;;;6.40;5.80;;;;;;;21.11;45.14;100187.59;4901208;28;97903;-62
2021/04/30 07:16:03;;;;;;;6.95;6.25;;;;;;;21.21;45.80;100198.06;4900587;28;97800;-59
2021/04/30 07:18:29;;;;;;;6.50;5.78;;;;;;;21.23;45.54;100198.53;4900276;28;119229;-61
2021/04/30 07:20:55;;;;;;;5.45;5.05;;;;;;;21.44;46.38;100194.88;4899505;28;128296;-59
2021/04/30 07:23:21;;;;;;;6.20;5.15;;;;;;;21.80;45.25;100194.72;4900178;28;127267;-62
2021/04/30 07:25:47;;;;;;;4.85;4.45;;;;;;;22.01;45.57;100201.97;4900217;28;97737;-59
2021/04/30 07:28:13;;;;;;;5.68;5.22;;;;;;;22.22;44.14;100202.56;4901522;28;98736;-59
2021/04/30 07:30:39;;;;;;;5.90;5.40;;;;;;;22.00;45.12;100201.16;4903087;28;126917;-59
2021/04/30 07:33:05;;;;;;;5.30;4.80;;;;;;;21.80;46.15;100202.16;4900676;28;127753;-64
2021/04/30 07:35:31;;;;;;;5.40;4.97;;;;;;;21.61;45.45;100205.53;4902742;28;98215;-62
2021/04/30 07:37:58;;;;;;;5.90;5.30;;;;;;;21.71;46.82;100207.81;4902848;28;128267;-59
2021/04/30 07:40:24;;;;;;;5.13;4.63;;;;;;;21.52;47.32;100216.66;4902613;28;112490;-62
2021/04/30 07:42:50;;;;;;;5.70;5.20;;;;;;;21.43;47.65;100212.47;4903751;28;98608;-60
2021/04/30 07:45:16;;;;;;;5.90;5.40;;;;;;;21.04;47.71;100214.78;4904015;28;97948;-62
2021/04/30 07:47:43;;;;;;;6.13;5.63;;;;;;;20.88;47.26;100222.09;4902119;28;129079;-62
2021/04/30 07:50:09;;;;;;;5.82;5.32;;;;;;;20.82;48.36;100216.03;4903560;28;98340;-59
2021/04/30 07:52:35;;;;;;;6.20;5.55;;;;;;;20.65;49.24;100221.72;4901512;28;98023;-62
2021/04/30 07:55:02;;;;;;;6.80;6.13;;;;;;;20.25;48.95;100228.56;4904395;28;97897;-60
2021/04/30 07:57:34;;;;;;;6.70;6.10;;;;;;;19.80;49.03;100239.44;4903407;28;97841;-59
2021/04/30 08:00:01;;;;;;;6.65;6.05;;;;;;;19.42;50.14;100248.56;4903304;28;98964;-60
2021/04/30 08:02:27;;;;;;;7.40;6.70;;;;;;;19.15;50.69;100244.38;4903744;28;110324;-62
2021/04/30 08:04:53;;;;;;;7.20;6.53;;;;;;;18.99;49.94;100248.81;4916918;28;120682;-60
2021/04/30 08:07:19;;;;;;;7.15;6.45;;;;;;;18.92;51.46;100245.78;4901082;28;99502;-60
2021/04/30 08:09:46;;;;;;;7.45;6.75;;;;;;;18.86;51.25;100248.72;4902564;28;127829;-62
2021/04/30 08:12:12;;;;;;;7.28;6.57;;;;;;;18.67;51.62;100261.09;4917804;28;97834;-59
2021/04/30 08:14:38;;;;;;;7.38;6.78;;;;;;;18.46;51.63;100261.78;4904354;28;97895;-59
2021/04/30 08:17:04;;;;;;;7.07;6.45;;;;;;;18.27;51.88;100264.88;4902087;28;123522;-62
2021/04/30 08:19:30;;;;;;;7.85;7.05;;;;;;;18.15;52.22;100267.47;4903720;28;98410;-59
2021/04/30 08:21:56;;;;;;;8.30;7.53;;;;;;;18.22;51.82;100261.53;4901871;28;126317;-60
2021/04/30 08:24:22;;;;;;;8.10;7.30;;;;;;;18.27;51.38;100264.06;4900987;28;123640;-61
2021/04/30 08:26:49;;;;;;;7.18;6.47;;;;;;;18.35;52.17;100272.28;4902630;28;98324;-62
2021/04/30 08:29:18;;;;;;;7.05;6.45;;;;;;;18.44;53.20;100271.44;4902806;28;99230;-59
2021/04/30 08:31:44;;;;;;;6.35;5.85;;;;;;;18.47;51.43;100270.78;4902015;28;126739;-62
2021/04/30 08:34:10;;;;;;;7.20;6.60;;;;;;;18.37;52.17;100277.38;4903842;28;97912;-62
2021/04/30 08:36:37;;;;;;;7.70;6.95;;;;;;;18.39;51.84;100273.22;4899673;28;127809;-62
2021/04/30 08:39:04;;;;;;;7.40;6.65;;;;;;;18.40;51.79;100279.47;4903830;28;98290;-60
2021/04/30 08:41:30;;;;;;;7.97;7.28;;;;;;;18.27;51.41;100291.34;4884616;28;97826;-60
2021/04/30 08:43:56;;;;;;;7.97;7.15;;;;;;;18.20;52.47;100296.53;4884593;28;118071;-60
2021/04/30 08:46:22;;;;;;;7.32;6.63;;;;;;;18.29;51.91;100275.47;4901369;28;127791;-60
2021/04/30 08:48:48;;;;;;;8.00;6.45;;;;;;;18.36;52.04;100276.59;4900449;28;127856;-60
2021/04/30 08:51:14;;;;;;;7.18;6.53;;;;;;;18.74;51.71;100273.13;4902279;28;126011;-60
2021/04/30 08:53:41;;;;;;;6.75;6.15;;;;;;;19.34;50.59;100272.06;4901356;28;108609;-60
2021/04/30 08:56:07;;;;;;;6.18;5.57;;;;;;;20.22;49.40;100272.22;4900336;28;98642;-62
2021/04/30 08:58:34;;;;;;;5.68;5.25;;;;;;;20.87;48.40;100278.81;4902616;28;98339;-63
2021/04/30 09:01:00;;;;;;;5.25;4.80;;;;;;;21.38;48.67;100270.25;4902499;28;98482;-63
2021/04/30 09:03:27;;;;;;;5.57;5.07;;;;;;;21.67;47.83;100272.72;4902110;28;122879;-63
2021/04/30 09:05:57;;;;;;;6.05;4.80;;;;;;;21.77;48.03;100275.00;4884228;28;103102;-63
2021/04/30 09:08:26;;;;;;;5.63;5.07;;;;;;;21.70;48.37;100269.31;4902950;28;99388;-60
2021/04/30 09:10:52;;;;;;;4.60;4.20;;;;;;;21.97;48.01;100275.16;4901968;28;100181;-60
2021/04/30 09:13:21;;;;;;;4.72;4.32;;;;;;;22.43;47.35;100267.44;4903046;28;97740;-64
2021/04/30 09:16:01;;;;;;;4.28;3.88;;;;;;;23.16;46.23;100264.19;4901687;28;98401;-63
2021/04/30 09:18:28;;;;;;;3.97;3.17;;;;;;;23.89;45.06;100265.41;4902371;28;111432;-61
2021/04/30 09:21:04;;;;;;;3.20;2.90;;;;;;;23.85;45.70;100277.50;4899925;28;98779;-63
2021/04/30 09:23:38;;;;;;;3.30;3.00;;;;;;;23.32;47.16;100269.66;4902577;28;98027;-63
2021/04/30 09:26:31;;;;;;;3.63;3.33;;;;;;;23.08;47.76;100272.63;4899988;28;100884;-63
2021/04/30 09:29:01;;;;;;;4.18;3.38;;;;;;;23.23;47.34;100280.06;4902910;28;98215;-60
2021/04/30 09:31:40;;;;;;;4.38;3.53;;;;;;;23.15;47.12;100283.81;4901058;28;98621;-63
2021/04/30 09:34:34;;;;;;;3.83;3.42;;;;;;;22.77;47.54;100277.75;4902259;28;97850;-63
2021/04/30 09:37:15;;;;;;;4.10;3.70;;;;;;;22.42;48.86;100283.09;4901069;28;98877;-60
2021/04/30 09:39:57;;;;;;;4.25;3.60;;;;;;;22.24;49.06;100276.31;4901850;28;98478;-60
2021/04/30 09:42:26;;;;;;;4.00;3.60;;;;;;;21.87;49.67;100289.38;4900011;28;98076;-60
2021/04/30 09:44:54;;;;;;;4.32;3.92;;;;;;;21.35;50.04;100284.66;4902594;28;97838;-60
2021/04/30 09:47:29;;;;;;;4.78;4.05;;;;;;;21.15;50.57;100302.81;4899837;28;98799;-60
2021/04/30 09:49:57;;;;;;;5.43;4.38;;;;;;;20.89;50.89;100297.63;4902427;28;98508;-62
2021/04/30 09:52:24;;;;;;;6.93;4.22;;;;;;;20.59;50.99;100300.53;4900728;28;98515;-60
2021/04/30 09:54:51;;;;;;;4.95;4.45;;;;;;;20.64;51.57;100291.31;4882999;28;114130;-60
2021/04/30 09:57:24;;;;;;;4.97;4.50;;;;;;;20.76;51.49;100300.34;4900110;28;98669;-62
2021/04/30 10:00:04;;;;;;;3.92;3.60;;;;;;;21.28;50.48;100296.16;4901163;28;98790;-63
2021/04/30 10:02:34;;;;;;;4.45;3.28;;;;;;;21.78;49.39;100301.28;4900656;28;98666;-60
2021/04/30 10:05:21;;;;;;;3.38;3.08;;;;;;;22.13;48.75;100298.00;4901674;28;98530;-63
2021/04/30 10:07:47;;;;;;;3.50;3.15;;;;;;;22.12;48.58;100296.34;4901115;28;99239;-61
2021/04/30 10:10:18;;;;;;;2.97;2.65;;;;;;;22.04;49.58;100298.09;4900858;28;128516;-63
2021/04/30 10:12:46;;;;;;;3.15;2.90;;;;;;;21.72;50.06;100301.84;4901573;28;98036;-62
2021/04/30 10:15:14;;;;;;;3.25;2.80;;;;;;;21.60;49.60;100296.41;4901514;28;97847;-60
2021/04/30 10:17:40;;;;;;;3.92;2.78;;;;;;;21.51;50.36;100300.06;4900804;28;110626;-62
2021/04/30 10:20:09;;;;;;;3.60;2.88;;;;;;;21.39;50.27;100297.34;4901164;28;98258;-62
2021/04/30 10:22:36;;;;;;;3.38;3.00;;;;;;;21.18;50.58;100302.91;4901791;28;98485;-62
2021/04/30 10:25:04;;;;;;;3.33;3.03;;;;;;;20.88;50.50;100299.56;4915720;28;97815;-62
2021/04/30 10:27:35;;;;;;;3.40;3.10;;;;;;;20.65;51.29;100301.13;4900624;28;98099;-63
2021/04/30 10:30:16;;;;;;;3.55;3.10;;;;;;;21.94;48.43;100298.59;4900973;28;118959;-63
2021/04/30 10:33:11;;;;;;;2.92;2.58;;;;;;;26.23;40.34;100279.03;4901504;28;98267;-63
2021/04/30 10:35:55;;;;;;;2.15;1.45;;;;;;;25.77;41.69;100290.28;4899896;28;98053;-60
2021/04/30 10:38:23;;;;;;;3.30;1.50;;;;;;;26.00;41.19;100288.25;4901854;28;98349;-61
2021/04/30 10:41:06;;;;;;;1.85;1.50;;;;;;;25.16;43.15;100290.22;4896052;28;97966;-61
2021/04/30 10:43:33;;;;;;;1.40;1.25;;;;;;;24.27;44.92;100291.34;4882423;28;98197;-61
2021/04/30 10:46:14;;;;;;;1.92;1.73;;;;;;;23.42;45.65;100293.03;4881999;28;97808;-63
2021/04/30 10:49:06;;;;;;;2.85;2.40;;;;;;;22.61;47.04;100295.38;4881733;28;98368;-63
2021/04/30 10:51:37;;;;;;;2.33;2.07;;;;;;;21.84;47.79;100306.50;4881604;28;98977;-63
2021/04/30 10:54:28;;;;;;;2.75;2.42;;;;;;;21.38;48.56;100303.97;4881432;28;110697;-63
2021/04/30 10:57:05;;;;;;;2.83;2.40;;;;;;;20.76;49.55;100294.88;4880946;28;109204;-62
2021/04/30 10:59:37;;;;;;;3.13;2.70;;;;;;;20.30;50.23;100291.28;4879332;28;98376;-62
2021/04/30 11:02:29;;;;;;;3.13;2.70;;;;;;;20.00;50.98;100300.72;4894308;28;98888;-62
2021/04/30 11:05:07;;;;;;;3.40;3.10;;;;;;;19.77;51.76;100295.63;4900559;28;98087;-63
2021/04/30 11:07:52;;;;;;;3.95;3.20;;;;;;;19.73;51.83;100299.31;4900855;28;97714;-63
2021/04/30 11:10:30;;;;;;;3.88;3.00;;;;;;;19.85;51.79;100297.50;4899691;28;120131;-63
2021/04/30 11:13:18;;;;;;;3.42;3.22;;;;;;;20.04;51.34;100299.75;4900440;28;99437;-60
2021/04/30 11:15:47;;;;;;;3.30;3.10;;;;;;;20.28;51.29;100298.25;4915096;28;99151;-60
2021/04/30 11:18:19;;;;;;;3.63;3.33;;;;;;;20.63;50.32;100290.50;4901413;28;98147;-60
2021/04/30 11:20:59;;;;;;;2.80;2.55;;;;;;;20.95;49.77;100286.13;4900410;28;97712;-63
2021/04/30 11:23:42;;;;;;;2.90;2.70;;;;;;;21.21;49.33;100277.53;4899786;28;98337;-60
2021/04/30 11:26:16;;;;;;;3.50;3.20;;;;;;;21.42;49.23;100285.69;4900405;28;98045;-63
2021/04/30 11:28:42;;;;;;;3.30;3.00;;;;;;;21.39;49.01;100288.31;4900817;28;97929;-63